Time;durP1;ratioP1;P1;durP2;ratioP2;P2;SDS_P1;SDS_P2;PMS_P1;PMS_P2;Temp;Humidity;BMP_temperature;BMP_pressure;BME280_temperature;BME280_humidity;BME280_pressure;Samples;Min_cycle;Max_cycle;Signal;HPM_P1;HPM_P2
2022/05/24 00:01:23;;;;;;;0.20;0.20;;;12.10;99.90;;;;;;5028927;28;20050;-64
2022/05/24 00:03:48;;;;;;;0.25;0.25;;;12.10;99.90;;;;;;5029216;28;20428;-65
2022/05/24 00:06:15;;;;;;;1.95;0.30;;;12.00;99.90;;;;;;5030418;28;20158;-63
2022/05/24 00:08:41;;;;;;;1.65;0.52;;;11.90;99.90;;;;;;5032169;28;20036;-64
2022/05/24 00:11:07;;;;;;;1.05;0.50;;;11.90;99.90;;;;;;5032212;28;20025;-63
2022/05/24 00:13:33;;;;;;;0.93;0.22;;;11.90;99.90;;;;;;5031994;28;20075;-64
2022/05/24 00:15:58;;;;;;;2.22;0.68;;;11.80;99.90;;;;;;5032129;28;20110;-63
2022/05/24 00:18:28;;;;;;;1.45;0.68;;;11.80;99.90;;;;;;5031975;28;20036;-63
2022/05/24 00:20:59;;;;;;;0.70;0.50;;;11.70;99.90;;;;;;5030749;28;20021;-64
2022/05/24 00:23:27;;;;;;;0.28;0.28;;;11.70;99.90;;;;;;5028707;28;20092;-64
2022/05/24 00:25:55;;;;;;;0.55;0.47;;;11.60;99.90;;;;;;5028610;28;20021;-64
2022/05/24 00:28:24;;;;;;;0.40;0.30;;;11.60;99.90;;;;;;5013846;28;20036;-64
2022/05/24 00:30:51;;;;;;;0.60;0.30;;;11.50;99.90;;;;;;5014641;28;20029;-63
2022/05/24 00:33:17;;;;;;;0.32;0.30;;;11.50;99.90;;;;;;5012059;28;20612;-64
2022/05/24 00:35:44;;;;;;;0.70;0.38;;;11.50;99.90;;;;;;5011916;28;20393;-63
2022/05/24 00:38:12;;;;;;;0.13;0.10;;;11.50;99.90;;;;;;5011823;28;20028;-64
2022/05/24 00:40:44;;;;;;;0.57;0.30;;;11.50;99.90;;;;;;5011654;28;20469;-64
2022/05/24 00:43:30;;;;;;;0.30;0.15;;;11.50;99.90;;;;;;5010973;28;20034;-63
2022/05/24 00:46:03;;;;;;;0.30;0.30;;;11.50;99.90;;;;;;5011487;28;20032;-64
2022/05/24 00:48:37;;;;;;;0.82;0.20;;;11.60;99.90;;;;;;5011627;28;20357;-64
2022/05/24 00:51:05;;;;;;;0.32;0.17;;;11.50;99.90;;;;;;5011690;28;20084;-64
2022/05/24 00:53:39;;;;;;;0.30;0.15;;;11.50;99.90;;;;;;5011484;28;20540;-64
2022/05/24 00:56:11;;;;;;;0.22;0.20;;;11.50;99.90;;;;;;5011359;28;20022;-63
2022/05/24 00:58:47;;;;;;;0.20;0.15;;;11.40;99.90;;;;;;5027432;28;20040;-63
2022/05/24 01:01:31;;;;;;;0.13;0.10;;;11.40;99.90;;;;;;5027780;28;20061;-64
2022/05/24 01:03:57;;;;;;;0.68;0.17;;;11.30;99.90;;;;;;5028371;28;20047;-63
2022/05/24 01:06:24;;;;;;;0.20;0.20;;;11.20;99.90;;;;;;5028093;28;20025;-63
2022/05/24 01:08:52;;;;;;;0.10;0.10;;;11.20;99.90;;;;;;5027995;28;20021;-64
2022/05/24 01:11:19;;;;;;;1.83;0.17;;;11.10;99.90;;;;;;5027746;28;20029;-64
2022/05/24 01:13:45;;;;;;;1.20;0.85;;;11.00;99.90;;;;;;5027793;28;20405;-63
2022/05/24 01:16:13;;;;;;;0.38;0.20;;;11.00;99.90;;;;;;5027815;28;20555;-64
2022/05/24 01:18:39;;;;;;;3.05;0.25;;;10.90;99.90;;;;;;5028002;28;20415;-63
2022/05/24 01:21:08;;;;;;;0.40;0.30;;;10.80;99.90;;;;;;5030356;28;20530;-64
2022/05/24 01:24:02;;;;;;;0.10;0.10;;;10.60;99.90;;;;;;5030932;28;20039;-63
2022/05/24 01:26:40;;;;;;;0.30;0.22;;;10.60;99.90;;;;;;5030448;28;20504;-64
2022/05/24 01:29:09;;;;;;;0.35;0.20;;;10.40;99.90;;;;;;5030676;28;20069;-64
2022/05/24 01:37:05;;;;;;;0.25;0.20;;;10.40;99.90;;;;;;5030850;28;20040;-64
2022/05/24 01:39:31;;;;;;;0.20;0.20;;;10.50;99.90;;;;;;5027320;28;20065;-63
2022/05/24 01:41:58;;;;;;;0.30;0.20;;;10.50;99.90;;;;;;5030322;28;20033;-63
2022/05/24 01:44:41;;;;;;;0.88;0.20;;;10.50;99.90;;;;;;5030303;28;20502;-64
2022/05/24 01:47:07;;;;;;;1.45;0.10;;;10.50;99.90;;;;;;5029351;28;20070;-63
2022/05/24 01:49:39;;;;;;;2.38;0.30;;;10.50;99.90;;;;;;5018200;28;20057;-63
2022/05/24 01:52:19;;;;;;;0.70;0.20;;;10.50;99.90;;;;;;5007587;28;20029;-63
2022/05/24 01:54:51;;;;;;;5.43;5.07;;;10.60;99.90;;;;;;5007592;28;20385;-63
2022/05/24 01:57:26;;;;;;;0.30;0.28;;;10.60;99.90;;;;;;5007142;28;20310;-64
2022/05/24 01:59:54;;;;;;;0.10;0.10;;;10.70;99.90;;;;;;5007208;28;20177;-64
2022/05/24 02:02:20;;;;;;;0.30;0.20;;;10.70;99.90;;;;;;5007547;28;20068;-63
2022/05/24 02:04:45;;;;;;;2.05;0.30;;;10.60;99.90;;;;;;4991730;28;20404;-63
2022/05/24 02:07:21;;;;;;;3.95;0.20;;;10.60;99.90;;;;;;5010767;28;20144;-64
2022/05/24 02:09:56;;;;;;;0.10;0.10;;;10.60;99.90;;;;;;5010271;28;20018;-63
2022/05/24 02:12:25;;;;;;;0.15;0.15;;;10.60;99.90;;;;;;5010473;28;20041;-63
2022/05/24 02:14:56;;;;;;;0.90;0.40;;;10.60;99.90;;;;;;5010449;28;20545;-63
2022/05/24 02:17:24;;;;;;;;;;;10.70;99.90;;;;;;5010828;28;20061;-63
2022/05/24 02:19:53;;;;;;;0.13;0.10;;;10.70;99.90;;;;;;5010291;28;20359;-63
2022/05/24 02:22:24;;;;;;;0.35;0.20;;;10.80;99.90;;;;;;5010239;28;20049;-63
2022/05/24 02:24:58;;;;;;;0.70;0.10;;;10.80;99.90;;;;;;5009989;28;20413;-63
2022/05/24 02:27:25;;;;;;;0.10;0.10;;;10.80;99.90;;;;;;5010339;28;20030;-63
2022/05/24 02:29:51;;;;;;;0.10;0.10;;;10.80;99.90;;;;;;5010252;28;20500;-63
2022/05/24 02:32:16;;;;;;;0.15;0.15;;;10.80;99.90;;;;;;5009865;28;20026;-64
2022/05/24 02:34:42;;;;;;;0.50;0.20;;;10.70;99.90;;;;;;5006998;28;20034;-64
2022/05/24 02:37:08;;;;;;;0.00;0.00;;;10.70;99.90;;;;;;5006744;28;20030;-64
2022/05/24 02:41:28;;;;;;;0.40;0.22;;;10.70;99.90;;;;;;5006492;28;20062;-64
2022/05/24 02:42:19;;;;;;;0.10;0.10;;;10.70;99.90;;;;;;5007724;28;20042;-64
2022/05/24 02:44:44;;;;;;;0.47;0.20;;;10.70;99.90;;;;;;5009965;28;20033;-64
2022/05/24 02:47:10;;;;;;;0.75;0.20;;;10.70;99.90;;;;;;5010342;28;20037;-63
2022/05/24 02:49:36;;;;;;;0.40;0.20;;;10.70;99.90;;;;;;5010057;28;20429;-63
2022/05/24 02:52:01;;;;;;;0.20;0.20;;;10.70;99.90;;;;;;5009927;28;20109;-63
2022/05/24 02:54:27;;;;;;;0.20;0.20;;;10.70;99.90;;;;;;5010187;28;20432;-63
2022/05/24 02:56:52;;;;;;;0.20;0.20;;;10.80;99.90;;;;;;5013095;28;20099;-63
2022/05/24 02:59:18;;;;;;;0.40;0.20;;;10.80;99.90;;;;;;5029624;28;20040;-63
2022/05/24 03:01:44;;;;;;;0.50;0.30;;;10.80;99.90;;;;;;5029449;28;20092;-63
2022/05/24 03:04:09;;;;;;;0.15;0.10;;;10.80;99.90;;;;;;5029557;28;20435;-63
2022/05/24 03:09:35;;;;;;;0.20;0.10;;;10.80;99.90;;;;;;5033411;28;20086;-63
2022/05/24 03:14:52;;;;;;;0.20;0.20;;;10.70;99.90;;;;;;5033447;28;20088;-63
2022/05/24 03:17:18;;;;;;;1.10;0.30;;;10.70;99.90;;;;;;5033134;28;20766;-63
2022/05/24 03:19:45;;;;;;;0.20;0.15;;;10.70;99.90;;;;;;5033447;28;20068;-63
2022/05/24 03:22:13;;;;;;;0.47;0.28;;;10.70;99.90;;;;;;5032884;28;20120;-63
2022/05/24 03:24:39;;;;;;;0.50;0.20;;;10.70;99.90;;;;;;5015044;28;20400;-63
2022/05/24 03:27:11;;;;;;;0.45;0.45;;;10.70;99.90;;;;;;5032982;28;20499;-63
2022/05/24 03:29:38;;;;;;;0.25;0.20;;;10.70;99.90;;;;;;5033036;28;20037;-63
2022/05/24 03:32:05;;;;;;;0.30;0.30;;;10.70;99.90;;;;;;5033239;28;20021;-63
2022/05/24 03:34:31;;;;;;;0.43;0.40;;;10.70;99.90;;;;;;5033114;28;20470;-63
2022/05/24 03:36:56;;;;;;;1.05;0.30;;;10.70;99.90;;;;;;5029696;28;20561;-63
2022/05/24 03:39:22;;;;;;;0.65;0.40;;;10.80;99.90;;;;;;5032869;28;20030;-63
2022/05/24 03:41:47;;;;;;;0.65;0.50;;;10.70;99.90;;;;;;5032556;28;20388;-63
2022/05/24 03:44:13;;;;;;;0.30;0.30;;;10.60;99.90;;;;;;5032512;28;20079;-63
2022/05/24 03:46:40;;;;;;;0.52;0.30;;;10.50;99.90;;;;;;5032891;28;20070;-63
2022/05/24 03:49:05;;;;;;;0.50;0.40;;;10.40;99.90;;;;;;5032915;28;20118;-64
2022/05/24 03:51:31;;;;;;;1.38;0.43;;;10.30;99.90;;;;;;5032600;28;20065;-63
2022/05/24 03:53:57;;;;;;;0.30;0.30;;;10.20;99.90;;;;;;5032687;28;20670;-63
2022/05/24 03:56:23;;;;;;;0.70;0.50;;;10.20;99.90;;;;;;5032354;28;20158;-64
2022/05/24 03:58:49;;;;;;;1.00;0.40;;;10.10;99.90;;;;;;5032312;28;20036;-63
2022/05/24 04:01:15;;;;;;;1.52;0.30;;;10.10;99.90;;;;;;5011231;28;20050;-63
2022/05/24 04:03:41;;;;;;;0.43;0.40;;;10.10;99.90;;;;;;5012613;28;20346;-64
2022/05/24 04:06:07;;;;;;;0.80;0.60;;;10.00;99.90;;;;;;5012559;28;20025;-63
2022/05/24 04:08:33;;;;;;;0.90;0.43;;;10.00;99.90;;;;;;5012509;28;20045;-63
2022/05/24 04:11:06;;;;;;;1.92;0.60;;;10.00;99.90;;;;;;5012212;28;20030;-63
2022/05/24 04:13:32;;;;;;;1.98;0.50;;;10.00;99.90;;;;;;5012694;28;20022;-63
2022/05/24 04:15:58;;;;;;;2.13;0.70;;;10.10;99.90;;;;;;5011013;28;20029;-63
2022/05/24 04:18:24;;;;;;;1.02;0.70;;;10.20;99.90;;;;;;5008462;28;20018;-63
2022/05/24 04:20:50;;;;;;;0.75;0.57;;;10.40;99.90;;;;;;5009980;28;20042;-63
2022/05/24 04:23:17;;;;;;;0.98;0.52;;;10.50;99.90;;;;;;5011978;28;20402;-63
2022/05/24 04:25:42;;;;;;;1.60;0.63;;;10.50;99.90;;;;;;5010514;28;20034;-63
2022/05/24 04:28:08;;;;;;;3.50;0.82;;;10.60;99.90;;;;;;4998787;28;20101;-63
2022/05/24 04:30:34;;;;;;;2.38;0.77;;;10.60;99.90;;;;;;4992567;28;20452;-63
2022/05/24 04:33:00;;;;;;;1.33;0.60;;;10.60;99.90;;;;;;4989416;28;20370;-63
2022/05/24 04:35:26;;;;;;;0.70;0.60;;;10.70;99.90;;;;;;4989274;28;20126;-63
2022/05/24 04:37:52;;;;;;;3.20;1.10;;;10.70;99.90;;;;;;4990640;28;20030;-63
2022/05/24 04:40:18;;;;;;;2.90;0.77;;;10.80;99.90;;;;;;4992093;28;20029;-64
2022/05/24 04:42:43;;;;;;;1.88;0.63;;;10.80;99.90;;;;;;4992204;28;20390;-63
2022/05/24 04:45:13;;;;;;;0.63;0.63;;;10.80;99.90;;;;;;4992358;28;20066;-63
2022/05/24 04:47:39;;;;;;;4.93;0.80;;;10.80;99.90;;;;;;4992327;28;20049;-63
2022/05/24 04:50:08;;;;;;;1.85;0.75;;;10.80;99.90;;;;;;4994513;28;20101;-64
2022/05/24 04:52:36;;;;;;;1.25;0.77;;;10.70;99.90;;;;;;4992028;28;20034;-63
2022/05/24 04:55:08;;;;;;;1.48;0.68;;;10.80;99.90;;;;;;4991729;28;20030;-65
2022/05/24 04:57:34;;;;;;;1.17;0.70;;;10.70;99.90;;;;;;5000667;28;20053;-63
2022/05/24 04:59:59;;;;;;;1.55;0.52;;;10.70;99.90;;;;;;5014044;28;20073;-64
2022/05/24 05:02:25;;;;;;;0.98;0.70;;;10.70;99.90;;;;;;5012330;28;20432;-62
2022/05/24 05:04:52;;;;;;;2.33;0.90;;;10.60;99.90;;;;;;5017193;28;20029;-63
2022/05/24 05:07:19;;;;;;;4.05;0.73;;;10.50;99.90;;;;;;5018054;28;20072;-63
2022/05/24 05:09:46;;;;;;;4.40;0.90;;;10.40;99.90;;;;;;5018472;28;20022;-63
2022/05/24 05:12:12;;;;;;;1.42;0.68;;;10.40;99.90;;;;;;5009176;28;20030;-62
2022/05/24 05:14:39;;;;;;;1.77;0.98;;;10.40;99.90;;;;;;5007753;28;20022;-65
2022/05/24 05:17:05;;;;;;;1.15;0.80;;;10.50;99.90;;;;;;5008067;28;20034;-64
2022/05/24 05:19:31;;;;;;;0.70;0.60;;;10.50;99.90;;;;;;5008250;28;20034;-63
2022/05/24 05:21:57;;;;;;;1.08;0.70;;;10.60;99.90;;;;;;5009586;28;20038;-64
2022/05/24 05:24:24;;;;;;;4.15;1.00;;;10.60;99.90;;;;;;5011069;28;20037;-63
2022/05/24 05:26:50;;;;;;;2.40;0.63;;;10.70;99.90;;;;;;5013727;28;20029;-64
2022/05/24 05:29:16;;;;;;;1.00;0.70;;;10.80;99.90;;;;;;5030569;28;20021;-63
2022/05/24 05:31:41;;;;;;;3.85;1.05;;;11.10;99.90;;;;;;5027074;28;20028;-64
2022/05/24 05:34:07;;;;;;;1.25;0.90;;;11.20;99.90;;;;;;5030662;28;20048;-64
2022/05/24 05:36:34;;;;;;;1.60;0.73;;;11.30;99.90;;;;;;5029149;28;20088;-64
2022/05/24 05:39:00;;;;;;;2.83;0.95;;;11.30;99.90;;;;;;5027358;28;20108;-64
2022/05/24 05:41:31;;;;;;;2.15;0.95;;;11.20;99.90;;;;;;5026979;28;20484;-63
2022/05/24 05:43:58;;;;;;;1.50;0.80;;;11.20;99.90;;;;;;5027545;28;20117;-64
2022/05/24 05:46:24;;;;;;;1.30;0.82;;;11.20;99.90;;;;;;5027137;28;20041;-63
2022/05/24 05:48:50;;;;;;;1.05;0.70;;;11.20;99.90;;;;;;5027237;28;20472;-64
2022/05/24 05:51:18;;;;;;;4.72;1.20;;;11.20;99.90;;;;;;5028472;28;20036;-64
2022/05/24 05:53:44;;;;;;;1.00;0.52;;;11.50;99.90;;;;;;5030160;28;20083;-64
2022/05/24 05:56:19;;;;;;;3.05;0.68;;;11.80;99.90;;;;;;5029900;28;20396;-64
2022/05/24 05:58:45;;;;;;;1.55;0.55;;;12.00;99.90;;;;;;5029875;28;20029;-64
2022/05/24 06:01:19;;;;;;;2.03;0.70;;;12.20;99.90;;;;;;5029778;28;20052;-64
2022/05/24 06:03:45;;;;;;;1.10;0.50;;;12.50;99.90;;;;;;5029644;28;20040;-64
2022/05/24 06:06:22;;;;;;;0.65;0.60;;;12.60;99.90;;;;;;5027412;28;20423;-64
2022/05/24 06:08:47;;;;;;;1.90;0.70;;;12.80;99.90;;;;;;5026917;28;20042;-64
2022/05/24 06:11:13;;;;;;;2.50;0.60;;;13.00;99.90;;;;;;5028662;28;20040;-64
2022/05/24 06:13:39;;;;;;;0.57;0.57;;;13.30;99.90;;;;;;5030020;28;20556;-64
2022/05/24 06:16:04;;;;;;;0.60;0.60;;;13.40;99.90;;;;;;5028855;28;20415;-64
2022/05/24 06:18:30;;;;;;;1.90;0.73;;;13.40;99.90;;;;;;5026860;28;20140;-64
2022/05/24 06:20:56;;;;;;;1.10;0.80;;;13.40;99.90;;;;;;5026807;28;20440;-64
2022/05/24 06:23:22;;;;;;;2.85;0.90;;;13.30;99.90;;;;;;5028328;28;20150;-64
2022/05/24 06:25:47;;;;;;;1.52;0.70;;;13.20;99.90;;;;;;5026494;28;20465;-64
2022/05/24 06:28:15;;;;;;;1.20;0.63;;;13.30;99.90;;;;;;5013044;28;20046;-64
2022/05/24 06:30:41;;;;;;;2.42;0.70;;;13.50;99.90;;;;;;5008854;28;20526;-64
2022/05/24 06:33:07;;;;;;;0.43;0.40;;;13.70;99.90;;;;;;5007116;28;20465;-64
2022/05/24 06:35:34;;;;;;;0.40;0.40;;;14.00;99.90;;;;;;5006880;28;20034;-63
2022/05/24 06:38:00;;;;;;;0.52;0.30;;;14.40;99.90;;;;;;5009982;28;20065;-64
2022/05/24 06:40:25;;;;;;;1.00;0.50;;;14.50;99.90;;;;;;5009462;28;20026;-64
2022/05/24 06:42:51;;;;;;;1.48;0.63;;;14.20;99.90;;;;;;5012229;28;20042;-64
2022/05/24 06:45:17;;;;;;;0.63;0.40;;;14.00;99.90;;;;;;5013927;28;20026;-64
2022/05/24 06:47:43;;;;;;;1.15;0.50;;;13.90;99.90;;;;;;5013595;28;20026;-64
2022/05/24 06:50:10;;;;;;;0.70;0.52;;;14.00;99.90;;;;;;5013854;28;20030;-64
2022/05/24 06:52:36;;;;;;;0.85;0.60;;;14.10;99.90;;;;;;5013412;28;20036;-66
2022/05/24 06:55:03;;;;;;;1.02;0.80;;;14.30;99.90;;;;;;5013337;28;20105;-63
2022/05/24 06:57:29;;;;;;;1.25;0.88;;;14.60;99.90;;;;;;5024423;28;20057;-63
2022/05/24 07:02:40;;;;;;;1.83;0.85;;;15.40;99.90;;;;;;5030708;28;20464;-63
2022/05/24 07:05:12;;;;;;;1.15;0.98;;;15.50;99.90;;;;;;5029636;28;20108;-63
2022/05/24 07:07:38;;;;;;;3.15;1.02;;;15.50;99.90;;;;;;5030743;28;20442;-63
2022/05/24 07:10:07;;;;;;;1.02;0.93;;;15.50;99.90;;;;;;5032960;28;20052;-63
2022/05/24 07:12:33;;;;;;;0.98;0.95;;;15.60;99.90;;;;;;5032992;28;20029;-64
2022/05/24 07:14:59;;;;;;;2.05;1.20;;;15.40;99.90;;;;;;5032864;28;20028;-64
2022/05/24 07:17:25;;;;;;;1.48;0.93;;;15.40;99.90;;;;;;5032752;28;20025;-66
2022/05/24 07:19:51;;;;;;;1.88;1.00;;;15.30;99.90;;;;;;5032916;28;20116;-63
2022/05/24 07:22:17;;;;;;;1.77;1.05;;;15.20;99.90;;;;;;5031188;28;20042;-64
2022/05/24 07:24:47;;;;;;;4.32;0.95;;;15.30;99.90;;;;;;5031221;28;20025;-65
2022/05/24 07:27:15;;;;;;;2.05;1.00;;;15.40;99.90;;;;;;5014826;28;20025;-65
2022/05/24 07:29:41;;;;;;;0.90;0.80;;;15.50;99.90;;;;;;5032633;28;20048;-65
2022/05/24 07:32:07;;;;;;;3.15;1.17;;;15.60;99.90;;;;;;5032537;28;20029;-64
2022/05/24 07:34:34;;;;;;;1.20;1.10;;;15.60;99.90;;;;;;5032355;28;20029;-65
2022/05/24 07:37:01;;;;;;;1.30;0.82;;;15.50;99.90;;;;;;5032505;28;20028;-65
2022/05/24 07:39:27;;;;;;;1.17;1.08;;;15.60;99.90;;;;;;5032367;28;20484;-64
2022/05/24 07:47:36;;;;;;;2.25;0.90;;;15.40;99.90;;;;;;4995382;28;20693;-64
2022/05/24 07:50:04;;;;;;;2.50;0.93;;;15.50;99.90;;;;;;5032618;28;20025;-63
2022/05/24 07:52:30;;;;;;;0.95;0.80;;;15.70;99.90;;;;;;5032118;28;20392;-64
2022/05/24 07:54:56;;;;;;;6.60;1.13;;;16.00;99.90;;;;;;5030873;28;20128;-64
2022/05/24 07:57:22;;;;;;;2.28;1.10;;;15.90;99.90;;;;;;5024965;28;20389;-63
2022/05/24 07:59:48;;;;;;;2.03;0.93;;;15.80;99.90;;;;;;5012212;28;20042;-63
2022/05/24 08:02:20;;;;;;;2.05;0.88;;;15.70;99.90;;;;;;5012261;28;20175;-63
2022/05/24 08:04:46;;;;;;;1.90;0.95;;;15.90;99.90;;;;;;5012754;28;20037;-63
2022/05/24 08:07:12;;;;;;;1.48;1.00;;;16.10;99.90;;;;;;5012579;28;20018;-63
2022/05/24 08:09:39;;;;;;;0.63;0.63;;;16.60;99.90;;;;;;5012156;28;20065;-64
2022/05/24 08:12:05;;;;;;;1.17;0.63;;;16.90;99.90;;;;;;5012513;28;20235;-63
2022/05/24 08:14:31;;;;;;;2.92;0.90;;;16.60;99.90;;;;;;5012008;28;20037;-63
2022/05/24 08:16:56;;;;;;;1.35;0.77;;;16.60;99.90;;;;;;5012045;28;20029;-63
2022/05/24 08:19:22;;;;;;;0.70;0.70;;;17.00;99.90;;;;;;5012425;28;20383;-62
2022/05/24 08:21:47;;;;;;;0.65;0.63;;;17.50;99.90;;;;;;5012014;28;20042;-62
2022/05/24 08:24:13;;;;;;;1.05;0.52;;;17.30;99.90;;;;;;5009716;28;20088;-63
2022/05/24 08:26:39;;;;;;;1.30;0.90;;;17.80;99.90;;;;;;5008357;28;20027;-63
2022/05/24 08:29:05;;;;;;;3.00;0.70;;;18.20;99.90;;;;;;5010805;28;20482;-63
2022/05/24 08:31:30;;;;;;;2.17;0.90;;;17.90;99.90;;;;;;5011408;28;20449;-62
2022/05/24 08:33:56;;;;;;;0.70;0.70;;;17.50;99.90;;;;;;5012120;28;20041;-62
2022/05/24 08:36:21;;;;;;;0.70;0.60;;;18.70;99.90;;;;;;5011600;28;20030;-62
2022/05/24 08:38:47;;;;;;;6.28;0.70;;;20.70;96.20;;;;;;5011344;28;20108;-62
2022/05/24 08:41:24;;;;;;;0.45;0.45;;;22.00;94.40;;;;;;5011703;28;20030;-61
2022/05/24 08:50:13;;;;;;;0.70;0.40;;;21.20;89.30;;;;;;5005913;28;20056;-63
2022/05/24 08:53:07;;;;;;;0.43;0.40;;;20.10;91.40;;;;;;5011513;28;20076;-63
2022/05/24 08:55:36;;;;;;;0.65;0.50;;;20.00;94.70;;;;;;5007727;28;20088;-62
2022/05/24 08:58:03;;;;;;;0.47;0.47;;;19.90;95.10;;;;;;5020873;28;20112;-63
2022/05/24 09:00:34;;;;;;;1.33;0.95;;;19.90;96.30;;;;;;5029974;28;20045;-63
2022/05/24 09:03:02;;;;;;;0.52;0.40;;;19.70;96.90;;;;;;5010315;28;20488;-63
2022/05/24 09:05:40;;;;;;;0.70;0.55;;;19.20;95.50;;;;;;5013588;28;20036;-62
2022/05/24 09:08:28;;;;;;;0.45;0.40;;;18.90;96.90;;;;;;5031002;28;20021;-62
2022/05/24 09:11:08;;;;;;;3.20;0.47;;;18.80;96.10;;;;;;5030719;28;20056;-63
2022/05/24 09:14:02;;;;;;;11.32;1.27;;;19.60;96.00;;;;;;5030906;28;20388;-62
2022/05/24 09:17:03;;;;;;;0.63;0.30;;;20.50;95.00;;;;;;5030707;28;20037;-63
2022/05/24 09:19:35;;;;;;;2.13;0.43;;;21.30;92.80;;;;;;5030752;28;20064;-63
2022/05/24 09:22:04;;;;;;;0.28;0.28;;;21.30;92.80;;;;;;5030662;28;20155;-63
2022/05/24 09:24:47;;;;;;;3.05;0.60;;;22.60;92.50;;;;;;5024754;28;20025;-63
2022/05/24 09:27:22;;;;;;;0.40;0.40;;;23.60;88.90;;;;;;5027567;28;20033;-62
2022/05/24 09:29:57;;;;;;;0.40;0.30;;;24.20;82.60;;;;;;5029580;28;20045;-63
2022/05/24 09:32:30;;;;;;;1.17;0.50;;;25.40;86.40;;;;;;5030330;28;20025;-63
2022/05/24 09:35:23;;;;;;;0.55;0.20;;;26.70;76.10;;;;;;5030031;28;20034;-64
2022/05/24 09:38:04;;;;;;;0.28;0.28;;;27.90;68.50;;;;;;5030352;28;20025;-64
2022/05/24 09:40:54;;;;;;;1.50;0.28;;;29.10;54.10;;;;;;5012331;28;20030;-64
2022/05/24 09:43:35;;;;;;;0.32;0.30;;;29.40;51.30;;;;;;5030390;28;20391;-64
2022/05/24 09:46:16;;;;;;;0.35;0.20;;;30.00;44.40;;;;;;5030042;28;20475;-65
2022/05/24 09:49:06;;;;;;;0.10;0.10;;;30.90;35.40;;;;;;5030188;28;20032;-64
2022/05/24 09:51:40;;;;;;;0.50;0.20;;;30.50;34.50;;;;;;5030647;28;20040;-65
2022/05/24 09:54:16;;;;;;;0.10;0.10;;;30.40;33.90;;;;;;5030239;28;20033;-65
2022/05/24 09:57:03;;;;;;;0.10;0.10;;;30.60;33.20;;;;;;5030348;28;20032;-65
2022/05/24 09:59:29;;;;;;;0.55;0.13;;;30.10;29.90;;;;;;5030359;28;20021;-65
2022/05/24 10:01:55;;;;;;;0.35;0.32;;;30.40;31.60;;;;;;5029913;28;20053;-65
2022/05/24 10:04:28;;;;;;;2.05;0.60;;;27.80;33.40;;;;;;5030527;28;20027;-65
2022/05/24 10:07:03;;;;;;;1.35;0.47;;;25.00;43.20;;;;;;5028731;28;20026;-65
2022/05/24 10:09:41;;;;;;;0.85;0.70;;;23.60;52.60;;;;;;5026659;28;20104;-66
2022/05/24 10:12:12;;;;;;;0.20;0.20;;;22.00;56.10;;;;;;5028246;28;20029;-65
2022/05/24 10:15:04;;;;;;;1.42;0.88;;;21.00;64.90;;;;;;5029892;28;20061;-65
2022/05/24 10:18:06;;;;;;;2.42;1.15;;;20.40;82.10;;;;;;5026149;28;20159;-64
2022/05/24 10:21:08;;;;;;;1.90;0.80;;;20.30;84.90;;;;;;5028369;28;20049;-63
2022/05/24 10:23:55;;;;;;;0.70;0.52;;;20.90;78.70;;;;;;5028517;28;20064;-65
2022/05/24 10:26:41;;;;;;;0.98;0.65;;;22.40;77.60;;;;;;5026802;28;20037;-65
2022/05/24 10:29:16;;;;;;;1.92;0.93;;;23.60;76.40;;;;;;5028493;28;20029;-64
2022/05/24 10:32:07;;;;;;;2.38;0.63;;;26.50;67.20;;;;;;5029842;28;20485;-66
2022/05/24 10:38:23;;;;;;;1.40;0.60;;;32.50;36.20;;;;;;5030053;28;20068;-65
2022/05/24 10:41:33;;;;;;;1.38;0.47;;;28.90;36.80;;;;;;4956066;28;20037;-65
2022/05/24 10:44:12;;;;;;;1.27;0.70;;;27.10;38.80;;;;;;4981941;28;20099;-66
2022/05/24 10:46:44;;;;;;;1.33;0.77;;;29.00;40.40;;;;;;5029605;28;20048;-65
2022/05/24 10:49:43;;;;;;;0.88;0.70;;;26.70;41.20;;;;;;5029503;28;20028;-67
2022/05/24 10:52:12;;;;;;;1.00;0.90;;;24.00;46.40;;;;;;5008304;28;20045;-66
2022/05/24 10:55:05;;;;;;;1.45;0.80;;;22.10;59.30;;;;;;5029720;28;20041;-67
2022/05/24 10:57:38;;;;;;;1.15;0.55;;;21.00;69.70;;;;;;5029621;28;20021;-67
2022/05/24 11:00:13;;;;;;;2.88;0.80;;;21.00;81.20;;;;;;5029479;28;20041;-66
2022/05/24 11:02:52;;;;;;;2.95;0.77;;;20.30;85.00;;;;;;5016914;28;20041;-65
2022/05/24 11:05:42;;;;;;;1.67;0.60;;;19.70;93.20;;;;;;5012326;28;20040;-65
2022/05/24 11:08:19;;;;;;;0.80;0.80;;;18.90;97.10;;;;;;5007021;28;20034;-66
2022/05/24 11:10:48;;;;;;;2.63;1.10;;;17.90;99.90;;;;;;5006777;28;20481;-65
2022/05/24 11:13:20;;;;;;;1.00;0.70;;;17.70;99.90;;;;;;5007021;28;20042;-65
2022/05/24 11:16:03;;;;;;;0.95;0.65;;;17.40;99.90;;;;;;5006470;28;20018;-65
2022/05/24 11:18:28;;;;;;;0.77;0.70;;;20.20;99.90;;;;;;5009202;28;20033;-65
2022/05/24 11:21:07;;;;;;;1.48;0.40;;;22.80;95.20;;;;;;5006653;28;20095;-65
2022/05/24 11:24:01;;;;;;;0.77;0.43;;;27.10;74.10;;;;;;5006456;28;20077;-66
2022/05/24 11:26:31;;;;;;;0.90;0.38;;;30.00;58.00;;;;;;5006273;28;20060;-67
2022/05/24 11:28:58;;;;;;;;;;;28.10;49.70;;;;;;5008657;28;20030;-64
2022/05/24 11:31:37;;;;;;;0.60;0.43;;;26.70;47.80;;;;;;5009995;28;19910;-66
2022/05/24 11:34:21;;;;;;;0.65;0.40;;;24.80;50.70;;;;;;5010208;28;20081;-65
2022/05/24 11:37:02;;;;;;;1.65;0.50;;;23.10;57.50;;;;;;5009586;28;20499;-66
2022/05/24 11:39:40;;;;;;;1.95;1.00;;;23.30;57.80;;;;;;5009820;28;20485;-65
2022/05/24 11:42:34;;;;;;;1.25;0.60;;;21.80;65.60;;;;;;5009340;28;20038;-65
2022/05/24 11:45:20;;;;;;;2.80;0.80;;;20.90;80.40;;;;;;5009734;28;20132;-64
2022/05/24 11:47:46;;;;;;;1.33;0.70;;;19.90;94.20;;;;;;5009279;28;20366;-64
2022/05/24 11:50:43;;;;;;;4.93;0.95;;;18.70;98.80;;;;;;4992039;28;20032;-65
2022/05/24 11:53:19;;;;;;;1.35;0.28;;;17.60;99.90;;;;;;4993694;28;20080;-64
2022/05/24 11:55:53;;;;;;;1.25;0.75;;;16.50;99.90;;;;;;5009283;28;20366;-65
2022/05/24 11:58:19;;;;;;;2.42;0.40;;;15.60;99.90;;;;;;5009484;28;20045;-65
2022/05/24 12:00:58;;;;;;;5.57;0.70;;;15.00;99.90;;;;;;5009156;28;20050;-65
2022/05/24 12:09:15;;;;;;;1.02;0.60;;;13.40;99.90;;;;;;5009631;28;20060;-64
2022/05/24 12:11:41;;;;;;;2.15;0.80;;;13.10;99.90;;;;;;5009274;28;20038;-64
2022/05/24 12:14:15;;;;;;;2.60;0.77;;;12.90;99.90;;;;;;5009349;28;20351;-64
2022/05/24 12:17:06;;;;;;;2.03;0.82;;;12.80;99.90;;;;;;5009245;28;20068;-65
2022/05/24 12:19:38;;;;;;;1.20;0.70;;;12.60;99.90;;;;;;5008942;28;20457;-64
2022/05/24 12:22:06;;;;;;;3.35;1.00;;;12.50;99.90;;;;;;5009249;28;20038;-63
2022/05/24 12:24:38;;;;;;;2.45;0.57;;;12.50;99.90;;;;;;5008943;28;20038;-63
2022/05/24 12:27:17;;;;;;;2.35;0.70;;;12.40;99.90;;;;;;5009253;28;20026;-63
2022/05/24 12:29:50;;;;;;;1.65;0.75;;;12.30;99.90;;;;;;5009203;28;20507;-64
2022/05/24 12:32:17;;;;;;;1.58;0.82;;;12.30;99.90;;;;;;5009055;28;20046;-64
2022/05/24 12:34:43;;;;;;;1.17;0.60;;;12.40;99.90;;;;;;5009020;28;20088;-64
2022/05/24 12:37:24;;;;;;;4.22;0.90;;;12.40;99.90;;;;;;5008702;28;20022;-64
2022/05/24 12:40:12;;;;;;;1.50;0.80;;;12.30;99.90;;;;;;5007844;28;20026;-64
2022/05/24 12:42:53;;;;;;;1.25;0.70;;;12.30;99.90;;;;;;5008875;28;20038;-62
2022/05/24 12:45:33;;;;;;;1.83;0.77;;;12.40;99.90;;;;;;5008513;28;20033;-63
2022/05/24 12:48:00;;;;;;;0.70;0.70;;;12.60;99.90;;;;;;5008669;28;20445;-63
2022/05/24 12:50:35;;;;;;;0.80;0.80;;;12.70;99.90;;;;;;5008892;28;20477;-64
2022/05/24 12:53:05;;;;;;;0.80;0.70;;;12.90;99.90;;;;;;5008529;28;20530;-64
2022/05/24 12:58:37;;;;;;;1.67;0.95;;;13.00;99.90;;;;;;5008591;28;20128;-64
2022/05/24 13:01:17;;;;;;;0.70;0.55;;;13.00;99.90;;;;;;5008315;28;20509;-65
2022/05/24 13:04:06;;;;;;;2.15;0.75;;;13.00;99.90;;;;;;5008414;28;20096;-64
2022/05/24 13:06:35;;;;;;;1.58;0.70;;;13.00;99.90;;;;;;5008384;28;20026;-66
2022/05/24 13:09:32;;;;;;;0.65;0.65;;;12.90;99.90;;;;;;5008539;28;20040;-64
2022/05/24 13:12:04;;;;;;;2.45;0.80;;;12.90;99.90;;;;;;5024624;28;20109;-64
2022/05/24 13:14:48;;;;;;;1.42;0.88;;;12.90;99.90;;;;;;5027721;28;20045;-64
2022/05/24 13:17:18;;;;;;;1.20;0.60;;;13.00;99.90;;;;;;5027890;28;20112;-64
2022/05/24 13:20:06;;;;;;;2.00;0.70;;;13.10;99.90;;;;;;5027821;28;20029;-66
2022/05/24 13:22:40;;;;;;;2.45;0.70;;;13.10;99.90;;;;;;5027390;28;20072;-66
2022/05/24 13:25:30;;;;;;;1.27;0.90;;;13.40;99.90;;;;;;5027771;28;20357;-65
2022/05/24 13:28:04;;;;;;;1.90;0.80;;;13.90;99.90;;;;;;4974363;28;20525;-66
2022/05/24 13:33:33;;;;;;;1.65;0.70;;;15.40;99.90;;;;;;5007961;28;20041;-63
2022/05/24 13:36:21;;;;;;;2.38;1.02;;;15.60;99.90;;;;;;5008033;28;20026;-65
2022/05/24 13:39:02;;;;;;;2.70;0.73;;;15.70;99.90;;;;;;5007784;28;20055;-65
2022/05/24 13:41:36;;;;;;;1.85;0.63;;;15.40;99.90;;;;;;5007595;28;20481;-65
2022/05/24 13:44:07;;;;;;;1.50;0.70;;;15.20;99.90;;;;;;5007894;28;20045;-65
2022/05/24 13:46:54;;;;;;;2.00;1.02;;;15.40;99.90;;;;;;5007605;28;20065;-65
2022/05/24 13:49:37;;;;;;;3.47;0.98;;;15.20;99.90;;;;;;5007333;28;20512;-65
2022/05/24 13:52:25;;;;;;;56.15;39.58;;;15.00;99.90;;;;;;5007126;28;20031;-65